sensor_id;sensor_type;location;lat;lon;timestamp;temperature;humidity
3690;DHT22;1861;50.240;8.596;2024-01-25T00:00:47;9.00;99.90
3690;DHT22;1861;50.240;8.596;2024-01-25T00:03:15;9.00;99.90
3690;DHT22;1861;50.240;8.596;2024-01-25T00:05:43;9.00;99.90
3690;DHT22;1861;50.240;8.596;2024-01-25T00:08:11;9.00;99.90
3690;DHT22;1861;50.240;8.596;2024-01-25T00:10:39;9.00;99.90
3690;DHT22;1861;50.240;8.596;2024-01-25T00:13:08;9.00;99.90
3690;DHT22;1861;50.240;8.596;2024-01-25T00:15:37;8.90;99.90
3690;DHT22;1861;50.240;8.596;2024-01-25T00:18:05;8.90;99.90
3690;DHT22;1861;50.240;8.596;2024-01-25T00:20:33;8.80;99.90
3690;DHT22;1861;50.240;8.596;2024-01-25T00:23:02;8.80;99.90
3690;DHT22;1861;50.240;8.596;2024-01-25T00:25:30;8.80;99.90
3690;DHT22;1861;50.240;8.596;2024-01-25T00:27:58;8.80;99.90
3690;DHT22;1861;50.240;8.596;2024-01-25T00:30:28;8.80;99.90
3690;DHT22;1861;50.240;8.596;2024-01-25T00:32:56;8.80;99.90
3690;DHT22;1861;50.240;8.596;2024-01-25T00:35:25;8.80;99.90
3690;DHT22;1861;50.240;8.596;2024-01-25T00:37:54;8.70;99.90
3690;DHT22;1861;50.240;8.596;2024-01-25T00:40:23;8.80;99.90
3690;DHT22;1861;50.240;8.596;2024-01-25T00:42:52;8.80;99.90
3690;DHT22;1861;50.240;8.596;2024-01-25T00:45:21;8.80;99.90
3690;DHT22;1861;50.240;8.596;2024-01-25T00:47:51;8.80;99.90
3690;DHT22;1861;50.240;8.596;2024-01-25T00:50:20;8.80;99.90
3690;DHT22;1861;50.240;8.596;2024-01-25T00:52:52;8.80;99.90
3690;DHT22;1861;50.240;8.596;2024-01-25T00:55:20;8.80;99.90
3690;DHT22;1861;50.240;8.596;2024-01-25T00:57:49;8.70;99.90
3690;DHT22;1861;50.240;8.596;2024-01-25T01:00:20;8.80;99.90
3690;DHT22;1861;50.240;8.596;2024-01-25T01:02:48;8.80;99.90
3690;DHT22;1861;50.240;8.596;2024-01-25T01:05:18;8.80;99.90
3690;DHT22;1861;50.240;8.596;2024-01-25T01:07:47;8.80;99.90
3690;DHT22;1861;50.240;8.596;2024-01-25T01:10:17;8.80;99.90
3690;DHT22;1861;50.240;8.596;2024-01-25T01:12:45;8.90;99.90
3690;DHT22;1861;50.240;8.596;2024-01-25T01:15:14;8.90;99.90
3690;DHT22;1861;50.240;8.596;2024-01-25T01:17:42;8.80;99.90
3690;DHT22;1861;50.240;8.596;2024-01-25T01:20:11;8.80;99.90
3690;DHT22;1861;50.240;8.596;2024-01-25T01:22:40;8.80;99.90
3690;DHT22;1861;50.240;8.596;2024-01-25T01:25:09;8.80;99.90
3690;DHT22;1861;50.240;8.596;2024-01-25T01:27:37;8.80;99.90
3690;DHT22;1861;50.240;8.596;2024-01-25T01:30:07;8.90;99.90
3690;DHT22;1861;50.240;8.596;2024-01-25T01:32:35;8.80;99.90
3690;DHT22;1861;50.240;8.596;2024-01-25T01:35:04;8.90;99.90
3690;DHT22;1861;50.240;8.596;2024-01-25T01:37:33;8.90;99.90
3690;DHT22;1861;50.240;8.596;2024-01-25T01:40:03;8.90;99.90
3690;DHT22;1861;50.240;8.596;2024-01-25T01:42:32;8.90;99.90
3690;DHT22;1861;50.240;8.596;2024-01-25T01:45:01;8.90;99.90
3690;DHT22;1861;50.240;8.596;2024-01-25T01:47:29;9.20;99.90
3690;DHT22;1861;50.240;8.596;2024-01-25T01:49:57;8.90;99.90
3690;DHT22;1861;50.240;8.596;2024-01-25T01:52:26;8.80;99.90
3690;DHT22;1861;50.240;8.596;2024-01-25T01:54:55;8.80;99.90
3690;DHT22;1861;50.240;8.596;2024-01-25T01:57:25;8.70;99.90
3690;DHT22;1861;50.240;8.596;2024-01-25T01:59:54;8.80;99.90
3690;DHT22;1861;50.240;8.596;2024-01-25T02:02:22;8.90;99.90
3690;DHT22;1861;50.240;8.596;2024-01-25T02:04:51;8.90;99.90
3690;DHT22;1861;50.240;8.596;2024-01-25T02:07:19;8.90;99.90
3690;DHT22;1861;50.240;8.596;2024-01-25T02:09:47;8.90;99.90
3690;DHT22;1861;50.240;8.596;2024-01-25T02:12:16;8.90;99.90
3690;DHT22;1861;50.240;8.596;2024-01-25T02:14:46;8.90;99.90
3690;DHT22;1861;50.240;8.596;2024-01-25T02:17:14;8.90;99.90
3690;DHT22;1861;50.240;8.596;2024-01-25T02:19:42;8.90;99.90
3690;DHT22;1861;50.240;8.596;2024-01-25T02:22:10;8.80;99.90
3690;DHT22;1861;50.240;8.596;2024-01-25T02:24:40;8.90;99.90
3690;DHT22;1861;50.240;8.596;2024-01-25T02:27:08;8.80;99.90
3690;DHT22;1861;50.240;8.596;2024-01-25T02:29:36;8.80;99.90
3690;DHT22;1861;50.240;8.596;2024-01-25T02:32:05;8.80;99.90
3690;DHT22;1861;50.240;8.596;2024-01-25T02:34:33;8.80;99.90
3690;DHT22;1861;50.240;8.596;2024-01-25T02:37:02;8.80;99.90
3690;DHT22;1861;50.240;8.596;2024-01-25T02:39:30;8.80;99.90
3690;DHT22;1861;50.240;8.596;2024-01-25T02:42:00;8.90;99.90
3690;DHT22;1861;50.240;8.596;2024-01-25T02:44:28;8.80;99.90
3690;DHT22;1861;50.240;8.596;2024-01-25T02:46:56;8.80;99.90
3690;DHT22;1861;50.240;8.596;2024-01-25T02:49:24;8.80;99.90
3690;DHT22;1861;50.240;8.596;2024-01-25T02:51:53;8.80;99.90
3690;DHT22;1861;50.240;8.596;2024-01-25T02:54:21;8.80;99.90
3690;DHT22;1861;50.240;8.596;2024-01-25T02:56:49;8.80;99.90
3690;DHT22;1861;50.240;8.596;2024-01-25T02:59:18;8.80;99.90
3690;DHT22;1861;50.240;8.596;2024-01-25T03:01:47;8.90;99.90
3690;DHT22;1861;50.240;8.596;2024-01-25T03:04:15;8.80;99.90
3690;DHT22;1861;50.240;8.596;2024-01-25T03:06:44;8.80;99.90
3690;DHT22;1861;50.240;8.596;2024-01-25T03:09:12;8.80;99.90
3690;DHT22;1861;50.240;8.596;2024-01-25T03:11:40;8.70;99.90
3690;DHT22;1861;50.240;8.596;2024-01-25T03:14:09;8.80;99.90
3690;DHT22;1861;50.240;8.596;2024-01-25T03:16:38;8.80;99.90
3690;DHT22;1861;50.240;8.596;2024-01-25T03:19:06;8.70;99.90
3690;DHT22;1861;50.240;8.596;2024-01-25T03:21:35;8.80;99.90
3690;DHT22;1861;50.240;8.596;2024-01-25T03:24:03;8.80;99.90
3690;DHT22;1861;50.240;8.596;2024-01-25T03:26:31;8.70;99.90
3690;DHT22;1861;50.240;8.596;2024-01-25T03:28:59;8.80;99.90
3690;DHT22;1861;50.240;8.596;2024-01-25T03:31:28;8.80;99.90
3690;DHT22;1861;50.240;8.596;2024-01-25T03:33:57;8.80;99.90
3690;DHT22;1861;50.240;8.596;2024-01-25T03:36:25;8.80;99.90
3690;DHT22;1861;50.240;8.596;2024-01-25T03:38:54;8.80;99.90
3690;DHT22;1861;50.240;8.596;2024-01-25T03:41:22;8.80;99.90
3690;DHT22;1861;50.240;8.596;2024-01-25T03:43:50;8.80;99.90
3690;DHT22;1861;50.240;8.596;2024-01-25T03:46:19;8.80;99.90
3690;DHT22;1861;50.240;8.596;2024-01-25T03:48:47;8.70;99.90
3690;DHT22;1861;50.240;8.596;2024-01-25T03:51:17;8.70;99.90
3690;DHT22;1861;50.240;8.596;2024-01-25T03:53:46;8.70;99.90
3690;DHT22;1861;50.240;8.596;2024-01-25T03:56:15;8.70;99.90
3690;DHT22;1861;50.240;8.596;2024-01-25T03:58:44;8.70;99.90
3690;DHT22;1861;50.240;8.596;2024-01-25T04:01:12;8.70;99.90
3690;DHT22;1861;50.240;8.596;2024-01-25T04:03:41;8.70;99.90
3690;DHT22;1861;50.240;8.596;2024-01-25T04:06:09;8.70;99.90
3690;DHT22;1861;50.240;8.596;2024-01-25T04:08:39;8.70;99.90
3690;DHT22;1861;50.240;8.596;2024-01-25T04:11:07;8.70;99.90
3690;DHT22;1861;50.240;8.596;2024-01-25T04:13:36;8.70;99.90
3690;DHT22;1861;50.240;8.596;2024-01-25T04:16:04;8.70;99.90
3690;DHT22;1861;50.240;8.596;2024-01-25T04:18:33;8.70;99.90
3690;DHT22;1861;50.240;8.596;2024-01-25T04:21:01;8.70;99.90
3690;DHT22;1861;50.240;8.596;2024-01-25T04:23:29;8.70;99.90
3690;DHT22;1861;50.240;8.596;2024-01-25T04:25:59;8.70;99.90
3690;DHT22;1861;50.240;8.596;2024-01-25T04:28:27;8.70;99.90
3690;DHT22;1861;50.240;8.596;2024-01-25T04:30:55;8.70;99.90
3690;DHT22;1861;50.240;8.596;2024-01-25T04:33:23;8.70;99.90
3690;DHT22;1861;50.240;8.596;2024-01-25T04:35:52;8.70;99.90
3690;DHT22;1861;50.240;8.596;2024-01-25T04:38:20;8.70;99.90
3690;DHT22;1861;50.240;8.596;2024-01-25T04:40:48;8.70;99.90
3690;DHT22;1861;50.240;8.596;2024-01-25T04:43:17;8.60;99.90
3690;DHT22;1861;50.240;8.596;2024-01-25T04:45:45;8.60;99.90
3690;DHT22;1861;50.240;8.596;2024-01-25T04:48:14;8.60;99.90
3690;DHT22;1861;50.240;8.596;2024-01-25T04:50:42;8.60;99.90
3690;DHT22;1861;50.240;8.596;2024-01-25T04:53:11;8.70;99.90
3690;DHT22;1861;50.240;8.596;2024-01-25T04:55:39;8.70;99.90
3690;DHT22;1861;50.240;8.596;2024-01-25T04:58:07;8.70;99.90
3690;DHT22;1861;50.240;8.596;2024-01-25T05:00:37;8.60;99.90
3690;DHT22;1861;50.240;8.596;2024-01-25T05:03:07;8.70;99.90
3690;DHT22;1861;50.240;8.596;2024-01-25T05:05:35;8.70;99.90
3690;DHT22;1861;50.240;8.596;2024-01-25T05:08:04;8.70;99.90
3690;DHT22;1861;50.240;8.596;2024-01-25T05:10:32;8.70;99.90
3690;DHT22;1861;50.240;8.596;2024-01-25T05:13:00;8.70;99.90
3690;DHT22;1861;50.240;8.596;2024-01-25T05:15:29;8.70;99.90
3690;DHT22;1861;50.240;8.596;2024-01-25T05:17:59;8.60;99.90
3690;DHT22;1861;50.240;8.596;2024-01-25T05:20:27;8.60;99.90
3690;DHT22;1861;50.240;8.596;2024-01-25T05:23:00;8.70;99.90
3690;DHT22;1861;50.240;8.596;2024-01-25T05:25:30;8.70;99.90
3690;DHT22;1861;50.240;8.596;2024-01-25T05:27:58;8.60;99.90
3690;DHT22;1861;50.240;8.596;2024-01-25T05:30:27;8.70;99.90
3690;DHT22;1861;50.240;8.596;2024-01-25T05:32:56;8.70;99.90
3690;DHT22;1861;50.240;8.596;2024-01-25T05:35:26;8.60;99.90
3690;DHT22;1861;50.240;8.596;2024-01-25T05:37:54;8.70;99.90
3690;DHT22;1861;50.240;8.596;2024-01-25T05:40:23;8.70;99.90
3690;DHT22;1861;50.240;8.596;2024-01-25T05:42:51;8.60;99.90
3690;DHT22;1861;50.240;8.596;2024-01-25T05:45:19;8.60;99.90
3690;DHT22;1861;50.240;8.596;2024-01-25T05:47:48;8.60;99.90
3690;DHT22;1861;50.240;8.596;2024-01-25T05:50:17;8.60;99.90
3690;DHT22;1861;50.240;8.596;2024-01-25T05:52:47;8.60;99.90
3690;DHT22;1861;50.240;8.596;2024-01-25T05:55:15;8.60;99.90
3690;DHT22;1861;50.240;8.596;2024-01-25T05:57:43;8.60;99.90
3690;DHT22;1861;50.240;8.596;2024-01-25T06:00:13;8.60;99.90
3690;DHT22;1861;50.240;8.596;2024-01-25T06:02:46;8.60;99.90
3690;DHT22;1861;50.240;8.596;2024-01-25T06:05:14;8.60;99.90
3690;DHT22;1861;50.240;8.596;2024-01-25T06:07:42;8.60;99.90
3690;DHT22;1861;50.240;8.596;2024-01-25T06:10:12;8.60;99.90
3690;DHT22;1861;50.240;8.596;2024-01-25T06:12:41;8.60;99.90
3690;DHT22;1861;50.240;8.596;2024-01-25T06:15:09;8.60;99.90
3690;DHT22;1861;50.240;8.596;2024-01-25T06:17:37;8.60;99.90
3690;DHT22;1861;50.240;8.596;2024-01-25T06:20:06;8.60;99.90
3690;DHT22;1861;50.240;8.596;2024-01-25T06:22:36;8.50;99.90
3690;DHT22;1861;50.240;8.596;2024-01-25T06:25:05;8.40;99.90
3690;DHT22;1861;50.240;8.596;2024-01-25T06:27:36;8.40;99.90
3690;DHT22;1861;50.240;8.596;2024-01-25T06:30:05;8.50;99.90
3690;DHT22;1861;50.240;8.596;2024-01-25T06:32:33;8.40;99.90
3690;DHT22;1861;50.240;8.596;2024-01-25T06:35:02;8.50;99.90
3690;DHT22;1861;50.240;8.596;2024-01-25T06:37:31;8.40;99.90
3690;DHT22;1861;50.240;8.596;2024-01-25T06:40:00;8.40;99.90
3690;DHT22;1861;50.240;8.596;2024-01-25T06:42:28;8.50;99.90
3690;DHT22;1861;50.240;8.596;2024-01-25T06:44:58;8.50;99.90
3690;DHT22;1861;50.240;8.596;2024-01-25T06:47:26;8.40;99.90
3690;DHT22;1861;50.240;8.596;2024-01-25T06:49:54;8.40;99.90
3690;DHT22;1861;50.240;8.596;2024-01-25T06:52:22;8.40;99.90
3690;DHT22;1861;50.240;8.596;2024-01-25T06:54:52;8.40;99.90
3690;DHT22;1861;50.240;8.596;2024-01-25T06:57:20;8.40;99.90
3690;DHT22;1861;50.240;8.596;2024-01-25T06:59:49;8.40;99.90
3690;DHT22;1861;50.240;8.596;2024-01-25T07:02:19;8.30;99.90
3690;DHT22;1861;50.240;8.596;2024-01-25T07:04:48;8.30;99.90
3690;DHT22;1861;50.240;8.596;2024-01-25T07:07:20;8.20;99.90
3690;DHT22;1861;50.240;8.596;2024-01-25T07:09:48;8.20;99.90
3690;DHT22;1861;50.240;8.596;2024-01-25T07:12:16;8.30;99.90
3690;DHT22;1861;50.240;8.596;2024-01-25T07:14:44;8.10;99.90
3690;DHT22;1861;50.240;8.596;2024-01-25T07:17:12;8.10;99.90
3690;DHT22;1861;50.240;8.596;2024-01-25T07:19:42;8.10;99.90
3690;DHT22;1861;50.240;8.596;2024-01-25T07:22:10;8.10;99.90
3690;DHT22;1861;50.240;8.596;2024-01-25T07:24:41;8.00;99.90
3690;DHT22;1861;50.240;8.596;2024-01-25T07:27:09;8.00;99.90
3690;DHT22;1861;50.240;8.596;2024-01-25T07:29:38;8.00;99.90
3690;DHT22;1861;50.240;8.596;2024-01-25T07:32:06;8.00;99.90
3690;DHT22;1861;50.240;8.596;2024-01-25T07:34:34;8.10;99.90
3690;DHT22;1861;50.240;8.596;2024-01-25T07:37:04;8.10;99.90
3690;DHT22;1861;50.240;8.596;2024-01-25T07:39:32;8.10;99.90
3690;DHT22;1861;50.240;8.596;2024-01-25T07:42:00;8.10;99.90
3690;DHT22;1861;50.240;8.596;2024-01-25T07:44:28;8.10;99.90
3690;DHT22;1861;50.240;8.596;2024-01-25T07:46:57;8.10;99.90
3690;DHT22;1861;50.240;8.596;2024-01-25T07:49:25;8.10;99.90
3690;DHT22;1861;50.240;8.596;2024-01-25T07:51:54;8.10;99.90
3690;DHT22;1861;50.240;8.596;2024-01-25T07:54:24;8.10;99.90
3690;DHT22;1861;50.240;8.596;2024-01-25T07:56:53;8.10;99.90
3690;DHT22;1861;50.240;8.596;2024-01-25T07:59:21;8.00;99.90
3690;DHT22;1861;50.240;8.596;2024-01-25T08:01:49;8.00;99.90
3690;DHT22;1861;50.240;8.596;2024-01-25T08:04:17;8.10;99.90
3690;DHT22;1861;50.240;8.596;2024-01-25T08:06:46;8.10;99.90
3690;DHT22;1861;50.240;8.596;2024-01-25T08:09:14;8.10;99.90
3690;DHT22;1861;50.240;8.596;2024-01-25T08:11:43;8.10;99.90
3690;DHT22;1861;50.240;8.596;2024-01-25T08:14:12;8.10;99.90
3690;DHT22;1861;50.240;8.596;2024-01-25T08:16:41;8.10;99.90
3690;DHT22;1861;50.240;8.596;2024-01-25T08:19:10;8.20;99.90
3690;DHT22;1861;50.240;8.596;2024-01-25T08:21:38;8.40;99.90
3690;DHT22;1861;50.240;8.596;2024-01-25T08:24:06;8.40;99.90
3690;DHT22;1861;50.240;8.596;2024-01-25T08:26:35;8.40;99.90
3690;DHT22;1861;50.240;8.596;2024-01-25T08:29:04;8.40;99.90
3690;DHT22;1861;50.240;8.596;2024-01-25T08:31:32;8.40;99.90
3690;DHT22;1861;50.240;8.596;2024-01-25T08:34:01;8.40;99.90
3690;DHT22;1861;50.240;8.596;2024-01-25T08:36:29;8.40;99.90
3690;DHT22;1861;50.240;8.596;2024-01-25T08:38:58;8.50;99.90
3690;DHT22;1861;50.240;8.596;2024-01-25T08:41:26;8.50;99.90
3690;DHT22;1861;50.240;8.596;2024-01-25T08:43:59;8.60;99.90
3690;DHT22;1861;50.240;8.596;2024-01-25T08:46:29;8.60;99.90
3690;DHT22;1861;50.240;8.596;2024-01-25T08:48:57;8.60;99.90
3690;DHT22;1861;50.240;8.596;2024-01-25T08:51:25;8.60;99.90
3690;DHT22;1861;50.240;8.596;2024-01-25T08:53:54;8.60;99.90
3690;DHT22;1861;50.240;8.596;2024-01-25T08:56:22;8.60;99.90
3690;DHT22;1861;50.240;8.596;2024-01-25T08:58:50;8.60;99.90
3690;DHT22;1861;50.240;8.596;2024-01-25T09:01:19;8.60;99.90
3690;DHT22;1861;50.240;8.596;2024-01-25T09:03:48;8.60;99.90
3690;DHT22;1861;50.240;8.596;2024-01-25T09:06:17;8.70;99.90
3690;DHT22;1861;50.240;8.596;2024-01-25T09:08:45;8.70;99.90
3690;DHT22;1861;50.240;8.596;2024-01-25T09:11:14;8.80;99.90
3690;DHT22;1861;50.240;8.596;2024-01-25T09:13:42;8.80;99.90
3690;DHT22;1861;50.240;8.596;2024-01-25T09:16:12;8.80;99.90
3690;DHT22;1861;50.240;8.596;2024-01-25T09:18:41;8.80;99.90
3690;DHT22;1861;50.240;8.596;2024-01-25T09:21:11;8.90;99.90
3690;DHT22;1861;50.240;8.596;2024-01-25T09:23:39;8.80;99.90
3690;DHT22;1861;50.240;8.596;2024-01-25T09:26:07;8.80;99.90
3690;DHT22;1861;50.240;8.596;2024-01-25T09:28:36;8.80;99.90
3690;DHT22;1861;50.240;8.596;2024-01-25T09:31:04;8.80;99.90
3690;DHT22;1861;50.240;8.596;2024-01-25T09:33:33;8.90;99.90
3690;DHT22;1861;50.240;8.596;2024-01-25T09:36:02;8.90;99.90
3690;DHT22;1861;50.240;8.596;2024-01-25T09:38:32;8.90;99.90
3690;DHT22;1861;50.240;8.596;2024-01-25T09:41:01;8.90;99.90
3690;DHT22;1861;50.240;8.596;2024-01-25T09:43:30;8.80;99.90
3690;DHT22;1861;50.240;8.596;2024-01-25T09:46:00;8.80;99.90
3690;DHT22;1861;50.240;8.596;2024-01-25T09:48:28;8.90;99.90
3690;DHT22;1861;50.240;8.596;2024-01-25T09:50:59;8.90;99.90
3690;DHT22;1861;50.240;8.596;2024-01-25T09:53:29;8.90;99.90
3690;DHT22;1861;50.240;8.596;2024-01-25T09:56:05;8.90;99.90
3690;DHT22;1861;50.240;8.596;2024-01-25T09:58:37;8.90;99.90
3690;DHT22;1861;50.240;8.596;2024-01-25T10:01:08;8.90;99.90
3690;DHT22;1861;50.240;8.596;2024-01-25T10:03:37;8.90;99.90
3690;DHT22;1861;50.240;8.596;2024-01-25T10:06:08;8.90;99.90
3690;DHT22;1861;50.240;8.596;2024-01-25T10:08:37;9.00;99.90
3690;DHT22;1861;50.240;8.596;2024-01-25T10:11:06;9.00;99.90
3690;DHT22;1861;50.240;8.596;2024-01-25T10:13:40;9.00;99.90
3690;DHT22;1861;50.240;8.596;2024-01-25T10:16:11;9.00;99.90
3690;DHT22;1861;50.240;8.596;2024-01-25T10:18:40;9.00;99.90
3690;DHT22;1861;50.240;8.596;2024-01-25T10:21:10;9.00;99.90
3690;DHT22;1861;50.240;8.596;2024-01-25T10:23:39;9.00;99.90
3690;DHT22;1861;50.240;8.596;2024-01-25T10:26:09;9.00;99.90
3690;DHT22;1861;50.240;8.596;2024-01-25T10:28:37;9.00;99.90
3690;DHT22;1861;50.240;8.596;2024-01-25T10:31:06;9.00;99.90
3690;DHT22;1861;50.240;8.596;2024-01-25T10:33:38;9.00;99.90
3690;DHT22;1861;50.240;8.596;2024-01-25T10:36:08;9.00;99.90
3690;DHT22;1861;50.240;8.596;2024-01-25T10:38:38;9.10;99.90
3690;DHT22;1861;50.240;8.596;2024-01-25T10:41:08;9.10;99.90
3690;DHT22;1861;50.240;8.596;2024-01-25T10:43:36;9.10;99.90
3690;DHT22;1861;50.240;8.596;2024-01-25T10:46:06;9.10;99.90
3690;DHT22;1861;50.240;8.596;2024-01-25T10:48:37;9.10;99.90
3690;DHT22;1861;50.240;8.596;2024-01-25T10:51:06;9.10;99.90
3690;DHT22;1861;50.240;8.596;2024-01-25T10:53:35;9.10;99.90
3690;DHT22;1861;50.240;8.596;2024-01-25T10:56:04;9.10;99.90
3690;DHT22;1861;50.240;8.596;2024-01-25T10:58:33;9.10;99.90
3690;DHT22;1861;50.240;8.596;2024-01-25T11:01:08;9.20;99.90
3690;DHT22;1861;50.240;8.596;2024-01-25T11:03:42;9.20;99.90
3690;DHT22;1861;50.240;8.596;2024-01-25T11:06:14;9.20;99.90
3690;DHT22;1861;50.240;8.596;2024-01-25T11:08:42;9.20;99.90
3690;DHT22;1861;50.240;8.596;2024-01-25T11:11:12;9.20;99.90
3690;DHT22;1861;50.240;8.596;2024-01-25T11:13:43;9.20;99.90
3690;DHT22;1861;50.240;8.596;2024-01-25T11:16:13;9.20;99.90
3690;DHT22;1861;50.240;8.596;2024-01-25T11:18:49;9.10;99.90
3690;DHT22;1861;50.240;8.596;2024-01-25T11:21:28;9.20;99.90
3690;DHT22;1861;50.240;8.596;2024-01-25T11:24:01;9.20;99.90
3690;DHT22;1861;50.240;8.596;2024-01-25T11:26:31;9.20;99.90
3690;DHT22;1861;50.240;8.596;2024-01-25T11:29:02;9.20;99.90
3690;DHT22;1861;50.240;8.596;2024-01-25T11:31:30;9.20;99.90
3690;DHT22;1861;50.240;8.596;2024-01-25T11:33:58;9.20;99.90
3690;DHT22;1861;50.240;8.596;2024-01-25T11:36:28;9.20;99.90
3690;DHT22;1861;50.240;8.596;2024-01-25T11:38:57;9.20;99.90
3690;DHT22;1861;50.240;8.596;2024-01-25T11:41:25;9.20;99.90
3690;DHT22;1861;50.240;8.596;2024-01-25T11:43:53;9.20;99.90
3690;DHT22;1861;50.240;8.596;2024-01-25T11:46:23;9.20;99.90
3690;DHT22;1861;50.240;8.596;2024-01-25T11:48:51;9.30;99.90
3690;DHT22;1861;50.240;8.596;2024-01-25T11:51:19;9.30;99.90
3690;DHT22;1861;50.240;8.596;2024-01-25T11:53:48;9.30;99.90
3690;DHT22;1861;50.240;8.596;2024-01-25T11:56:20;9.30;99.90
3690;DHT22;1861;50.240;8.596;2024-01-25T11:58:49;9.30;99.90
3690;DHT22;1861;50.240;8.596;2024-01-25T12:01:18;9.30;99.90
3690;DHT22;1861;50.240;8.596;2024-01-25T12:03:49;9.30;99.90
3690;DHT22;1861;50.240;8.596;2024-01-25T12:06:17;9.30;99.90
3690;DHT22;1861;50.240;8.596;2024-01-25T12:08:46;9.30;99.90
3690;DHT22;1861;50.240;8.596;2024-01-25T12:11:15;9.30;99.90
3690;DHT22;1861;50.240;8.596;2024-01-25T12:13:44;9.30;99.90
3690;DHT22;1861;50.240;8.596;2024-01-25T12:16:13;9.30;99.90
3690;DHT22;1861;50.240;8.596;2024-01-25T12:18:43;9.30;99.90
3690;DHT22;1861;50.240;8.596;2024-01-25T12:21:13;9.30;99.90
3690;DHT22;1861;50.240;8.596;2024-01-25T12:23:42;9.30;99.90
3690;DHT22;1861;50.240;8.596;2024-01-25T12:26:11;9.30;99.90
3690;DHT22;1861;50.240;8.596;2024-01-25T12:28:39;9.30;99.90
3690;DHT22;1861;50.240;8.596;2024-01-25T12:31:08;9.30;99.90
3690;DHT22;1861;50.240;8.596;2024-01-25T12:33:37;9.30;99.90
3690;DHT22;1861;50.240;8.596;2024-01-25T12:36:05;9.30;99.90
3690;DHT22;1861;50.240;8.596;2024-01-25T12:38:35;9.30;99.90
3690;DHT22;1861;50.240;8.596;2024-01-25T12:41:04;9.30;99.90
3690;DHT22;1861;50.240;8.596;2024-01-25T12:43:32;9.30;99.90
3690;DHT22;1861;50.240;8.596;2024-01-25T12:46:01;9.30;99.90
3690;DHT22;1861;50.240;8.596;2024-01-25T12:48:44;9.30;99.90
3690;DHT22;1861;50.240;8.596;2024-01-25T12:51:14;9.30;99.90
3690;DHT22;1861;50.240;8.596;2024-01-25T12:53:44;9.40;99.90
3690;DHT22;1861;50.240;8.596;2024-01-25T12:56:13;9.40;99.90
3690;DHT22;1861;50.240;8.596;2024-01-25T12:58:41;9.40;99.90
3690;DHT22;1861;50.240;8.596;2024-01-25T13:01:09;9.40;99.90
3690;DHT22;1861;50.240;8.596;2024-01-25T13:03:39;9.40;99.90
3690;DHT22;1861;50.240;8.596;2024-01-25T13:06:08;9.40;99.90
3690;DHT22;1861;50.240;8.596;2024-01-25T13:08:36;9.40;99.90
3690;DHT22;1861;50.240;8.596;2024-01-25T13:11:05;9.40;99.90
3690;DHT22;1861;50.240;8.596;2024-01-25T13:13:34;9.40;99.90
3690;DHT22;1861;50.240;8.596;2024-01-25T13:16:02;9.40;99.90
3690;DHT22;1861;50.240;8.596;2024-01-25T13:18:30;9.40;99.90
3690;DHT22;1861;50.240;8.596;2024-01-25T13:20:59;9.40;99.90
3690;DHT22;1861;50.240;8.596;2024-01-25T13:23:27;9.40;99.90
3690;DHT22;1861;50.240;8.596;2024-01-25T13:25:55;9.40;99.90
3690;DHT22;1861;50.240;8.596;2024-01-25T13:28:24;9.40;99.90
3690;DHT22;1861;50.240;8.596;2024-01-25T13:30:52;9.40;99.90
3690;DHT22;1861;50.240;8.596;2024-01-25T13:33:21;9.40;99.90
3690;DHT22;1861;50.240;8.596;2024-01-25T13:35:50;9.40;99.90
3690;DHT22;1861;50.240;8.596;2024-01-25T13:38:18;9.40;99.90
3690;DHT22;1861;50.240;8.596;2024-01-25T13:40:46;9.40;99.90
3690;DHT22;1861;50.240;8.596;2024-01-25T13:43:14;9.40;99.90
3690;DHT22;1861;50.240;8.596;2024-01-25T13:45:44;9.40;99.90
3690;DHT22;1861;50.240;8.596;2024-01-25T13:48:12;9.50;99.90
3690;DHT22;1861;50.240;8.596;2024-01-25T13:50:41;9.40;99.90
3690;DHT22;1861;50.240;8.596;2024-01-25T13:53:09;9.50;99.90
3690;DHT22;1861;50.240;8.596;2024-01-25T13:55:38;9.50;99.90
3690;DHT22;1861;50.240;8.596;2024-01-25T13:58:06;9.50;99.90
3690;DHT22;1861;50.240;8.596;2024-01-25T14:00:34;9.50;99.90
3690;DHT22;1861;50.240;8.596;2024-01-25T14:03:04;9.40;99.90
3690;DHT22;1861;50.240;8.596;2024-01-25T14:05:32;9.40;99.90
3690;DHT22;1861;50.240;8.596;2024-01-25T14:08:00;9.40;99.90
3690;DHT22;1861;50.240;8.596;2024-01-25T14:10:28;9.40;99.90
3690;DHT22;1861;50.240;8.596;2024-01-25T14:12:57;9.50;99.90
3690;DHT22;1861;50.240;8.596;2024-01-25T14:15:26;9.50;99.90
3690;DHT22;1861;50.240;8.596;2024-01-25T14:17:54;9.50;99.90
3690;DHT22;1861;50.240;8.596;2024-01-25T14:20:23;9.50;99.90
3690;DHT22;1861;50.240;8.596;2024-01-25T14:22:51;9.50;99.90
3690;DHT22;1861;50.240;8.596;2024-01-25T14:25:20;9.50;99.90
3690;DHT22;1861;50.240;8.596;2024-01-25T14:27:48;9.40;99.90
3690;DHT22;1861;50.240;8.596;2024-01-25T14:30:19;9.50;99.90
3690;DHT22;1861;50.240;8.596;2024-01-25T14:32:48;9.50;99.90
3690;DHT22;1861;50.240;8.596;2024-01-25T14:35:18;9.50;99.90
3690;DHT22;1861;50.240;8.596;2024-01-25T14:37:48;9.50;99.90
3690;DHT22;1861;50.240;8.596;2024-01-25T14:40:16;9.50;99.90
3690;DHT22;1861;50.240;8.596;2024-01-25T14:43:04;9.50;99.90
3690;DHT22;1861;50.240;8.596;2024-01-25T14:45:33;9.50;99.90
3690;DHT22;1861;50.240;8.596;2024-01-25T14:48:03;9.50;99.90
3690;DHT22;1861;50.240;8.596;2024-01-25T14:50:32;9.50;99.90
3690;DHT22;1861;50.240;8.596;2024-01-25T14:53:02;9.50;99.90
3690;DHT22;1861;50.240;8.596;2024-01-25T14:55:30;9.50;99.90
3690;DHT22;1861;50.240;8.596;2024-01-25T14:57:59;9.50;99.90
3690;DHT22;1861;50.240;8.596;2024-01-25T15:00:28;9.50;99.90
3690;DHT22;1861;50.240;8.596;2024-01-25T15:02:56;9.50;99.90
3690;DHT22;1861;50.240;8.596;2024-01-25T15:05:24;9.50;99.90
3690;DHT22;1861;50.240;8.596;2024-01-25T15:07:52;9.50;99.90
3690;DHT22;1861;50.240;8.596;2024-01-25T15:10:21;9.50;99.90
3690;DHT22;1861;50.240;8.596;2024-01-25T15:12:49;9.50;99.90
3690;DHT22;1861;50.240;8.596;2024-01-25T15:15:21;9.40;99.90
3690;DHT22;1861;50.240;8.596;2024-01-25T15:17:50;9.40;99.90
3690;DHT22;1861;50.240;8.596;2024-01-25T15:20:18;9.40;99.90
3690;DHT22;1861;50.240;8.596;2024-01-25T15:22:46;9.40;99.90
3690;DHT22;1861;50.240;8.596;2024-01-25T15:25:14;9.40;99.90
3690;DHT22;1861;50.240;8.596;2024-01-25T15:27:44;9.30;99.90
3690;DHT22;1861;50.240;8.596;2024-01-25T15:30:12;9.30;99.90
3690;DHT22;1861;50.240;8.596;2024-01-25T15:32:40;9.30;99.90
3690;DHT22;1861;50.240;8.596;2024-01-25T15:35:09;9.30;99.90
3690;DHT22;1861;50.240;8.596;2024-01-25T15:37:38;9.30;99.90
3690;DHT22;1861;50.240;8.596;2024-01-25T15:40:08;9.30;99.90
3690;DHT22;1861;50.240;8.596;2024-01-25T15:42:39;9.30;99.90
3690;DHT22;1861;50.240;8.596;2024-01-25T15:45:09;9.30;99.90
3690;DHT22;1861;50.240;8.596;2024-01-25T15:47:38;9.30;99.90
3690;DHT22;1861;50.240;8.596;2024-01-25T15:50:07;9.20;99.90
3690;DHT22;1861;50.240;8.596;2024-01-25T15:52:35;9.20;99.90
3690;DHT22;1861;50.240;8.596;2024-01-25T15:55:04;9.20;99.90
3690;DHT22;1861;50.240;8.596;2024-01-25T15:57:33;9.20;99.90
3690;DHT22;1861;50.240;8.596;2024-01-25T16:00:01;9.20;99.90
3690;DHT22;1861;50.240;8.596;2024-01-25T16:02:37;9.20;99.90
3690;DHT22;1861;50.240;8.596;2024-01-25T16:05:05;9.10;99.90
3690;DHT22;1861;50.240;8.596;2024-01-25T16:07:34;9.10;99.90
3690;DHT22;1861;50.240;8.596;2024-01-25T16:10:03;9.00;99.90
3690;DHT22;1861;50.240;8.596;2024-01-25T16:12:31;9.00;99.90
3690;DHT22;1861;50.240;8.596;2024-01-25T16:15:00;8.90;99.90
3690;DHT22;1861;50.240;8.596;2024-01-25T16:17:28;8.90;99.90
3690;DHT22;1861;50.240;8.596;2024-01-25T16:19:57;9.00;99.90
3690;DHT22;1861;50.240;8.596;2024-01-25T16:22:26;9.00;99.90
3690;DHT22;1861;50.240;8.596;2024-01-25T16:24:54;9.00;99.90
3690;DHT22;1861;50.240;8.596;2024-01-25T16:27:22;9.00;99.90